createdAt,value
2019-01-18T00:00:09.673Z,2.70
2019-01-18T00:01:24.559Z,2.00
2019-01-18T00:02:32.998Z,2.55
2019-01-18T00:03:38.767Z,2.27
2019-01-18T00:04:45.706Z,1.98
2019-01-18T00:05:51.193Z,2.55
2019-01-18T00:06:56.624Z,1.77
2019-01-18T00:08:03.215Z,2.02
2019-01-18T00:09:09.193Z,2.45
2019-01-18T00:10:15.010Z,2.90
2019-01-18T00:11:20.297Z,1.82
2019-01-18T00:12:25.715Z,1.72
2019-01-18T00:13:31.012Z,2.10
2019-01-18T00:14:36.381Z,2.02
2019-01-18T00:15:41.685Z,1.85
2019-01-18T00:16:46.965Z,3.60
2019-01-18T00:17:52.284Z,3.33
2019-01-18T00:18:57.579Z,5.42
2019-01-18T00:20:02.880Z,3.05
2019-01-18T00:21:08.296Z,2.22
2019-01-18T00:22:13.597Z,3.25
2019-01-18T00:23:18.932Z,1.80
2019-01-18T00:24:24.233Z,2.10
2019-01-18T00:25:29.623Z,2.15
2019-01-18T00:26:34.970Z,2.50
2019-01-18T00:27:40.237Z,2.30
2019-01-18T00:28:45.531Z,1.72
2019-01-18T00:29:50.832Z,2.40
2019-01-18T00:30:56.100Z,2.08
2019-01-18T00:32:01.464Z,2.20
2019-01-18T00:33:07.040Z,2.00
2019-01-18T00:34:12.377Z,2.20
2019-01-18T00:35:19.662Z,2.98
2019-01-18T00:36:24.934Z,2.83
2019-01-18T00:37:30.197Z,2.60
2019-01-18T00:38:35.500Z,2.45
2019-01-18T00:39:40.776Z,2.10
2019-01-18T00:40:46.290Z,1.80
2019-01-18T00:41:51.539Z,2.33
2019-01-18T00:42:56.846Z,2.33
2019-01-18T00:44:02.139Z,2.08
2019-01-18T00:45:09.492Z,1.98
2019-01-18T00:46:14.712Z,2.00
2019-01-18T00:47:20.003Z,2.20
2019-01-18T00:48:25.266Z,2.70
2019-01-18T00:49:30.693Z,1.90
2019-01-18T00:50:35.977Z,2.45
2019-01-18T00:51:41.320Z,1.92
2019-01-18T00:52:46.860Z,2.58
2019-01-18T00:53:52.192Z,1.87
2019-01-18T00:54:57.668Z,2.10
2019-01-18T00:56:02.939Z,2.10
2019-01-18T00:57:08.283Z,2.27
2019-01-18T00:58:13.572Z,2.45
2019-01-18T00:59:18.899Z,2.33
2019-01-18T01:00:26.464Z,2.62
2019-01-18T01:01:31.871Z,1.98
2019-01-18T01:02:37.187Z,2.02
2019-01-18T01:03:42.585Z,2.22
2019-01-18T01:04:47.885Z,2.25
2019-01-18T01:05:53.158Z,2.55
2019-01-18T01:06:58.445Z,2.30
2019-01-18T01:08:03.741Z,2.58
2019-01-18T01:09:09.156Z,1.75
2019-01-18T01:10:14.547Z,2.00
2019-01-18T01:11:20.248Z,2.00
2019-01-18T01:12:25.612Z,1.77
2019-01-18T01:13:30.932Z,2.00
2019-01-18T01:14:36.284Z,2.20
2019-01-18T01:15:41.564Z,1.98
2019-01-18T01:16:46.887Z,2.17
2019-01-18T01:17:52.185Z,1.95
2019-01-18T01:18:57.479Z,3.20
2019-01-18T01:20:02.784Z,1.65
2019-01-18T01:21:08.180Z,1.57
2019-01-18T01:22:13.612Z,1.70
2019-01-18T01:23:18.904Z,1.67
2019-01-18T01:24:24.212Z,1.67
2019-01-18T01:25:29.604Z,2.00
2019-01-18T01:26:35.138Z,1.92
2019-01-18T01:27:40.860Z,1.62
2019-01-18T01:28:46.182Z,1.80
2019-01-18T01:29:51.469Z,2.10
2019-01-18T01:30:56.782Z,2.15
2019-01-18T01:32:02.071Z,1.80
2019-01-18T01:33:07.444Z,2.00
2019-01-18T01:34:12.730Z,1.92
2019-01-18T01:35:18.198Z,1.85
2019-01-18T01:36:23.468Z,2.10
2019-01-18T01:37:28.725Z,1.60
2019-01-18T01:38:34.012Z,1.72
2019-01-18T01:39:39.323Z,1.80
2019-01-18T01:40:44.689Z,1.67
2019-01-18T01:41:49.952Z,1.72
2019-01-18T01:42:55.282Z,1.67
2019-01-18T01:44:00.608Z,2.10
2019-01-18T01:45:06.379Z,2.08
2019-01-18T01:46:11.734Z,2.00
2019-01-18T01:47:17.071Z,3.25
2019-01-18T01:48:22.286Z,2.17
2019-01-18T01:49:27.582Z,2.12
2019-01-18T01:50:32.843Z,1.77
2019-01-18T01:51:38.127Z,2.67
2019-01-18T01:52:43.410Z,2.10
2019-01-18T01:53:48.711Z,2.50
2019-01-18T01:54:53.976Z,2.37
2019-01-18T01:55:59.263Z,2.52
2019-01-18T01:57:05.653Z,2.12
2019-01-18T01:58:10.959Z,1.98
2019-01-18T01:59:16.229Z,2.40
2019-01-18T02:00:24.614Z,2.37
2019-01-18T02:01:30.879Z,2.60
2019-01-18T02:02:36.167Z,1.87
2019-01-18T02:03:41.444Z,2.58
2019-01-18T02:04:46.732Z,2.33
2019-01-18T02:05:52.025Z,2.02
2019-01-18T02:06:57.305Z,3.52
2019-01-18T02:08:02.580Z,2.12
2019-01-18T02:09:08.068Z,2.00
2019-01-18T02:10:14.325Z,2.22
2019-01-18T02:11:19.680Z,2.00
2019-01-18T02:12:24.974Z,2.47
2019-01-18T02:13:30.757Z,2.50
2019-01-18T02:14:36.014Z,2.52
2019-01-18T02:15:41.279Z,2.55
2019-01-18T02:16:46.563Z,2.42
2019-01-18T02:17:51.944Z,2.30
2019-01-18T02:18:57.203Z,2.20
2019-01-18T02:20:02.504Z,2.08
2019-01-18T02:21:07.796Z,2.17
2019-01-18T02:22:14.161Z,2.20
2019-01-18T02:23:19.479Z,2.80
2019-01-18T02:24:24.735Z,2.17
2019-01-18T02:25:29.883Z,1.92
2019-01-18T02:26:35.064Z,2.75
2019-01-18T02:27:40.629Z,2.65
2019-01-18T02:28:45.805Z,2.42
2019-01-18T02:29:56.617Z,2.02
2019-01-18T02:30:57.897Z,2.17
2019-01-18T02:32:03.172Z,2.08
2019-01-18T02:33:08.462Z,1.80
2019-01-18T02:34:13.743Z,1.90
2019-01-18T02:35:19.023Z,2.20
2019-01-18T02:36:24.165Z,2.00
2019-01-18T02:37:29.352Z,2.30
2019-01-18T02:38:34.635Z,2.00
2019-01-18T02:39:39.788Z,2.30
2019-01-18T02:40:45.058Z,1.80
2019-01-18T02:41:50.296Z,1.82
2019-01-18T02:42:55.561Z,2.40
2019-01-18T02:44:00.725Z,2.45
2019-01-18T02:45:07.922Z,1.95
2019-01-18T02:46:13.195Z,2.37
2019-01-18T02:47:18.515Z,1.87
2019-01-18T02:48:23.686Z,1.80
2019-01-18T02:49:34.028Z,2.17
2019-01-18T02:50:39.346Z,2.02
2019-01-18T02:51:44.862Z,2.27
2019-01-18T02:52:50.065Z,2.20
2019-01-18T02:53:55.319Z,2.20
2019-01-18T02:55:00.515Z,1.90
2019-01-18T02:56:06.078Z,2.15
2019-01-18T02:57:11.440Z,1.87
2019-01-18T02:58:16.656Z,2.42
2019-01-18T02:59:21.951Z,2.60
2019-01-18T03:00:27.102Z,2.20
2019-01-18T03:01:32.393Z,2.00
2019-01-18T03:02:37.637Z,2.20
2019-01-18T03:03:42.976Z,2.72
2019-01-18T03:04:48.326Z,2.35
2019-01-18T03:05:53.564Z,2.25
2019-01-18T03:06:58.888Z,2.25
2019-01-18T03:08:04.219Z,2.70
2019-01-18T03:09:10.607Z,1.90
2019-01-18T03:10:24.204Z,1.98
2019-01-18T03:11:29.364Z,2.27
2019-01-18T03:12:34.579Z,2.27
2019-01-18T03:13:39.752Z,2.17
2019-01-18T03:14:45.063Z,2.27
2019-01-18T03:15:50.285Z,1.98
2019-01-18T03:16:55.494Z,2.25
2019-01-18T03:18:00.733Z,2.20
2019-01-18T03:19:06.343Z,2.10
2019-01-18T03:20:12.850Z,2.15
2019-01-18T03:21:18.100Z,1.72
2019-01-18T03:22:23.271Z,2.10
2019-01-18T03:23:28.580Z,2.67
2019-01-18T03:24:33.744Z,2.08
2019-01-18T03:25:39.010Z,2.80
2019-01-18T03:26:44.248Z,2.67
2019-01-18T03:27:49.419Z,2.42
2019-01-18T03:28:54.601Z,2.17
2019-01-18T03:29:59.827Z,2.45
2019-01-18T03:31:05.095Z,2.35
2019-01-18T03:32:10.423Z,2.35
2019-01-18T03:33:15.781Z,2.33
2019-01-18T03:34:21.048Z,2.50
2019-01-18T03:35:26.401Z,3.08
2019-01-18T03:36:31.637Z,2.60
2019-01-18T03:37:36.821Z,2.40
2019-01-18T03:38:42.031Z,3.17
2019-01-18T03:39:47.280Z,2.77
2019-01-18T03:40:53.124Z,2.47
2019-01-18T03:41:58.475Z,2.70
2019-01-18T03:43:03.639Z,2.35
2019-01-18T03:44:09.046Z,2.45
2019-01-18T03:45:16.128Z,2.85
2019-01-18T03:46:21.420Z,2.20
2019-01-18T03:47:26.792Z,2.42
2019-01-18T03:48:32.136Z,2.10
2019-01-18T03:49:37.481Z,2.22
2019-01-18T03:50:42.746Z,2.52
2019-01-18T03:51:47.974Z,2.37
2019-01-18T03:52:53.250Z,2.50
2019-01-18T03:53:58.558Z,2.70
2019-01-18T03:55:03.983Z,2.60
2019-01-18T03:56:09.456Z,3.05
2019-01-18T03:57:14.698Z,2.72
2019-01-18T03:58:19.975Z,3.10
2019-01-18T03:59:25.164Z,3.12
2019-01-18T04:00:31.036Z,2.62
2019-01-18T04:01:36.225Z,3.10
2019-01-18T04:02:41.493Z,2.77
2019-01-18T04:03:46.785Z,2.20
2019-01-18T04:04:52.060Z,2.67
2019-01-18T04:05:57.344Z,2.40
2019-01-18T04:07:02.520Z,2.58
2019-01-18T04:08:07.795Z,2.65
2019-01-18T04:09:13.439Z,2.47
2019-01-18T04:10:19.534Z,2.47
2019-01-18T04:11:24.688Z,3.00
2019-01-18T04:12:29.863Z,2.33
2019-01-18T04:13:35.021Z,2.80
2019-01-18T04:14:40.285Z,2.35
2019-01-18T04:15:45.545Z,2.83
2019-01-18T04:16:51.742Z,2.90
2019-01-18T04:17:56.836Z,2.60
2019-01-18T04:19:01.993Z,2.42
2019-01-18T04:20:08.601Z,2.47
2019-01-18T04:21:14.106Z,3.00
2019-01-18T04:22:19.360Z,2.42
2019-01-18T04:23:24.520Z,2.02
2019-01-18T04:24:29.713Z,2.47
2019-01-18T04:25:35.137Z,2.20
2019-01-18T04:26:40.396Z,2.95
2019-01-18T04:27:45.676Z,2.10
2019-01-18T04:28:51.083Z,2.50
2019-01-18T04:29:56.345Z,2.55
2019-01-18T04:31:01.616Z,2.15
2019-01-18T04:32:06.758Z,2.92
2019-01-18T04:33:11.902Z,2.85
2019-01-18T04:34:17.171Z,2.35
2019-01-18T04:35:22.442Z,2.67
2019-01-18T04:36:27.710Z,2.50
2019-01-18T04:37:32.862Z,2.17
2019-01-18T04:38:38.071Z,2.62
2019-01-18T04:39:43.348Z,2.45
2019-01-18T04:40:48.658Z,2.50
2019-01-18T04:41:53.838Z,2.55
2019-01-18T04:42:59.113Z,2.20
2019-01-18T04:44:04.624Z,2.37
2019-01-18T04:45:10.017Z,2.50
2019-01-18T04:46:15.678Z,3.10
2019-01-18T04:47:20.976Z,2.40
2019-01-18T04:48:26.211Z,3.27
2019-01-18T04:49:31.368Z,2.72
2019-01-18T04:50:36.595Z,3.22
2019-01-18T04:51:41.837Z,2.30
2019-01-18T04:52:47.106Z,2.70
2019-01-18T04:53:52.247Z,2.72
2019-01-18T04:54:57.457Z,3.12
2019-01-18T04:56:02.700Z,2.47
2019-01-18T04:57:07.985Z,2.98
2019-01-18T04:58:13.230Z,2.60
2019-01-18T04:59:18.446Z,2.45
2019-01-18T05:00:25.548Z,2.58
2019-01-18T05:01:30.728Z,2.70
2019-01-18T05:02:35.935Z,2.50
2019-01-18T05:03:41.085Z,2.50
2019-01-18T05:04:46.445Z,2.90
2019-01-18T05:05:51.646Z,3.00
2019-01-18T05:06:56.878Z,2.70
2019-01-18T05:08:02.143Z,3.30
2019-01-18T05:09:08.136Z,2.27
2019-01-18T05:10:17.794Z,2.40
2019-01-18T05:11:23.050Z,2.40
2019-01-18T05:12:28.337Z,2.40
2019-01-18T05:13:33.602Z,2.37
2019-01-18T05:14:38.801Z,2.90
2019-01-18T05:15:44.019Z,2.77
2019-01-18T05:16:49.326Z,3.17
2019-01-18T05:17:54.545Z,2.37
2019-01-18T05:18:59.809Z,2.40
2019-01-18T05:20:05.730Z,2.60
2019-01-18T05:21:11.081Z,2.55
2019-01-18T05:22:16.352Z,2.75
2019-01-18T05:23:21.641Z,2.85
2019-01-18T05:24:27.066Z,2.67
2019-01-18T05:25:32.235Z,2.47
2019-01-18T05:26:37.525Z,2.92
2019-01-18T05:27:42.774Z,2.80
2019-01-18T05:28:47.998Z,2.87
2019-01-18T05:29:53.226Z,3.20
2019-01-18T05:30:58.498Z,3.50
2019-01-18T05:32:03.832Z,2.72
2019-01-18T05:33:09.065Z,2.90
2019-01-18T05:34:14.310Z,2.70
2019-01-18T05:35:20.864Z,3.05
2019-01-18T05:36:26.281Z,3.15
2019-01-18T05:37:31.660Z,3.10
2019-01-18T05:38:36.860Z,3.35
2019-01-18T05:39:42.130Z,3.00
2019-01-18T05:40:47.576Z,3.02
2019-01-18T05:41:52.873Z,2.85
2019-01-18T05:42:58.128Z,3.25
2019-01-18T05:44:03.417Z,2.98
2019-01-18T05:45:10.595Z,3.50
2019-01-18T05:46:15.864Z,3.10
2019-01-18T05:47:21.411Z,3.90
2019-01-18T05:48:26.617Z,2.98
2019-01-18T05:49:31.850Z,3.15
2019-01-18T05:50:37.046Z,2.98
2019-01-18T05:51:42.261Z,3.75
2019-01-18T05:52:47.788Z,3.25
2019-01-18T05:53:53.094Z,3.50
2019-01-18T05:54:58.328Z,3.47
2019-01-18T05:56:03.542Z,3.40
2019-01-18T05:57:08.812Z,3.22
2019-01-18T05:58:14.061Z,3.33
2019-01-18T05:59:22.352Z,2.80
2019-01-18T06:00:38.174Z,3.42
2019-01-18T06:01:43.492Z,25.05
2019-01-18T06:02:48.756Z,15.30
2019-01-18T06:03:54.136Z,6.10
2019-01-18T06:04:59.834Z,16.35
2019-01-18T06:06:05.638Z,8.75
2019-01-18T06:07:10.998Z,5.47
2019-01-18T06:08:16.342Z,3.80
2019-01-18T06:09:21.775Z,3.60
2019-01-18T06:10:27.092Z,3.05
2019-01-18T06:11:32.411Z,3.10
2019-01-18T06:12:37.715Z,3.30
2019-01-18T06:13:42.986Z,2.90
2019-01-18T06:14:48.271Z,3.20
2019-01-18T06:15:53.491Z,3.17
2019-01-18T06:16:58.730Z,3.30
2019-01-18T06:18:03.985Z,3.70
2019-01-18T06:19:09.136Z,4.10
2019-01-18T06:20:15.803Z,3.33
2019-01-18T06:21:21.611Z,3.55
2019-01-18T06:22:26.941Z,3.30
2019-01-18T06:23:32.138Z,2.87
2019-01-18T06:24:38.408Z,3.50
2019-01-18T06:25:43.601Z,3.27
2019-01-18T06:26:48.918Z,3.95
2019-01-18T06:27:54.169Z,3.45
2019-01-18T06:28:59.409Z,3.30
2019-01-18T06:30:07.304Z,3.83
2019-01-18T06:31:12.612Z,3.60
2019-01-18T06:32:17.892Z,3.83
2019-01-18T06:33:23.192Z,3.55
2019-01-18T06:34:28.500Z,3.90
2019-01-18T06:35:33.838Z,4.05
2019-01-18T06:36:39.116Z,3.70
2019-01-18T06:37:44.522Z,3.72
2019-01-18T06:38:50.847Z,3.90
2019-01-18T06:39:56.030Z,4.12
2019-01-18T06:41:13.558Z,3.45
2019-01-18T06:42:18.747Z,3.55
2019-01-18T06:43:24.074Z,3.90
2019-01-18T06:44:29.225Z,3.47
2019-01-18T06:45:35.301Z,3.52
2019-01-18T06:46:40.493Z,3.83
2019-01-18T06:47:45.696Z,4.20
2019-01-18T06:48:52.138Z,3.47
2019-01-18T06:49:57.392Z,3.92
2019-01-18T06:51:02.658Z,3.77
2019-01-18T06:52:07.803Z,3.55
2019-01-18T06:53:12.895Z,3.55
2019-01-18T06:54:18.195Z,4.03
2019-01-18T06:55:25.006Z,4.03
2019-01-18T06:56:30.273Z,3.22
2019-01-18T06:57:35.522Z,4.15
2019-01-18T06:58:40.854Z,3.95
2019-01-18T06:59:46.192Z,4.03
2019-01-18T07:00:51.500Z,3.65
2019-01-18T07:01:56.770Z,4.12
2019-01-18T07:03:02.286Z,3.98
2019-01-18T07:04:07.536Z,4.20
2019-01-18T07:05:12.928Z,4.17
2019-01-18T07:06:18.187Z,4.55
2019-01-18T07:07:23.493Z,4.05
2019-01-18T07:08:28.766Z,3.98
2019-01-18T07:09:34.131Z,4.05
2019-01-18T07:10:39.461Z,3.90
2019-01-18T07:11:44.737Z,4.08
2019-01-18T07:12:49.992Z,10.63
2019-01-18T07:13:55.404Z,5.95
2019-01-18T07:15:00.686Z,6.50
2019-01-18T07:16:05.963Z,5.72
2019-01-18T07:17:11.245Z,3.58
2019-01-18T07:18:16.408Z,3.92
2019-01-18T07:19:21.777Z,4.22
2019-01-18T07:20:27.147Z,3.72
2019-01-18T07:21:33.514Z,4.28
2019-01-18T07:22:40.939Z,4.53
2019-01-18T07:23:46.229Z,4.72
2019-01-18T07:24:51.512Z,3.75
2019-01-18T07:25:56.809Z,4.30
2019-01-18T07:27:02.170Z,3.98
2019-01-18T07:28:07.477Z,4.05
2019-01-18T07:29:12.786Z,4.10
2019-01-18T07:30:20.727Z,4.37
2019-01-18T07:31:26.136Z,3.47
2019-01-18T07:32:31.505Z,40.50
2019-01-18T07:33:36.878Z,41.58
2019-01-18T07:34:42.249Z,8.50
2019-01-18T07:35:47.645Z,4.40
2019-01-18T07:36:52.918Z,4.35
2019-01-18T07:37:58.259Z,3.87
2019-01-18T07:39:05.291Z,3.80
2019-01-18T07:40:10.912Z,3.98
2019-01-18T07:41:16.154Z,3.55
2019-01-18T07:42:21.377Z,3.60
2019-01-18T07:43:26.752Z,3.30
2019-01-18T07:44:32.091Z,4.08
2019-01-18T07:45:37.432Z,4.10
2019-01-18T07:46:42.643Z,3.83
2019-01-18T07:47:47.872Z,3.90
2019-01-18T07:48:53.376Z,3.47
2019-01-18T07:49:58.631Z,4.03
2019-01-18T07:51:03.885Z,3.52
2019-01-18T07:52:09.205Z,3.80
2019-01-18T07:53:14.401Z,3.37
2019-01-18T07:54:19.806Z,3.62
2019-01-18T07:55:26.384Z,4.00
2019-01-18T07:56:31.775Z,4.12
2019-01-18T07:57:39.406Z,3.65
2019-01-18T07:58:44.745Z,3.77
2019-01-18T07:59:50.068Z,4.08
2019-01-18T08:00:55.317Z,4.03
2019-01-18T08:02:00.590Z,3.72
2019-01-18T08:03:05.958Z,4.12
2019-01-18T08:04:11.251Z,3.72
2019-01-18T08:05:16.625Z,3.85
2019-01-18T08:06:22.018Z,3.22
2019-01-18T08:07:27.291Z,4.05
2019-01-18T08:08:32.673Z,3.60
2019-01-18T08:09:37.967Z,3.65
2019-01-18T08:10:43.260Z,3.52
2019-01-18T08:11:48.439Z,4.35
2019-01-18T08:12:53.971Z,3.87
2019-01-18T08:13:59.277Z,3.52
2019-01-18T08:15:05.536Z,3.33
2019-01-18T08:16:10.779Z,3.85
2019-01-18T08:17:15.950Z,3.35
2019-01-18T08:18:21.241Z,3.50
2019-01-18T08:19:26.682Z,3.37
2019-01-18T08:20:32.458Z,3.92
2019-01-18T08:21:37.778Z,3.27
2019-01-18T08:22:43.366Z,3.77
2019-01-18T08:23:48.646Z,3.83
2019-01-18T08:24:53.932Z,3.80
2019-01-18T08:25:59.212Z,3.90
2019-01-18T08:27:04.490Z,3.87
2019-01-18T08:28:10.015Z,3.17
2019-01-18T08:29:15.264Z,3.80
2019-01-18T08:30:22.588Z,3.72
2019-01-18T08:31:29.035Z,3.40
2019-01-18T08:32:34.512Z,2.95
2019-01-18T08:33:39.984Z,3.50
2019-01-18T08:34:45.256Z,3.12
2019-01-18T08:35:51.703Z,2.98
2019-01-18T08:36:56.906Z,3.27
2019-01-18T08:38:02.224Z,3.30
2019-01-18T08:39:09.060Z,3.10
2019-01-18T08:40:16.833Z,3.17
2019-01-18T08:41:22.183Z,2.70
2019-01-18T08:42:27.324Z,3.35
2019-01-18T08:43:33.014Z,3.20
2019-01-18T08:44:38.327Z,2.75
2019-01-18T08:45:57.734Z,2.75
2019-01-18T08:47:03.031Z,2.70
2019-01-18T08:48:08.857Z,3.40
2019-01-18T08:49:14.157Z,2.90
2019-01-18T08:50:22.869Z,2.58
2019-01-18T08:51:28.174Z,2.77
2019-01-18T08:52:41.521Z,2.77
2019-01-18T08:54:19.929Z,2.37
2019-01-18T08:55:58.849Z,2.70
2019-01-18T09:02:27.365Z,2.40
2019-01-18T09:03:32.689Z,2.40
2019-01-18T09:04:40.492Z,3.07
2019-01-18T09:05:45.757Z,2.53
2019-01-18T09:06:50.914Z,3.00
2019-01-18T09:07:56.092Z,2.33
2019-01-18T09:09:01.311Z,2.80
2019-01-18T09:10:10.572Z,2.60
2019-01-18T09:11:16.482Z,2.90
2019-01-18T09:12:21.652Z,2.50
2019-01-18T09:13:26.966Z,2.43
2019-01-18T09:14:32.273Z,2.37
2019-01-18T09:15:37.632Z,2.50
2019-01-18T09:16:42.752Z,2.20
2019-01-18T09:17:47.887Z,2.30
2019-01-18T09:18:53.447Z,2.23
2019-01-18T09:19:58.693Z,2.67
2019-01-18T09:21:03.865Z,2.70
2019-01-18T09:22:08.999Z,2.70
2019-01-18T09:23:14.236Z,2.23
2019-01-18T09:24:19.444Z,3.00
2019-01-18T09:25:24.711Z,1.93
2019-01-18T09:26:29.968Z,2.67
2019-01-18T09:27:35.283Z,2.47
2019-01-18T09:28:40.471Z,2.63
2019-01-18T09:29:45.687Z,3.20
2019-01-18T09:30:50.894Z,2.87
2019-01-18T09:31:56.243Z,2.70
2019-01-18T09:33:02.128Z,2.60
2019-01-18T09:34:07.344Z,2.97
2019-01-18T09:35:14.694Z,2.87
2019-01-18T09:36:19.878Z,2.60
2019-01-18T09:37:25.236Z,3.00
2019-01-18T09:38:30.549Z,2.83
2019-01-18T09:39:35.842Z,2.40
2019-01-18T09:40:41.220Z,2.50
2019-01-18T09:41:46.382Z,2.83
2019-01-18T09:42:51.581Z,2.30
2019-01-18T09:43:59.700Z,3.17
2019-01-18T09:45:07.465Z,2.80
2019-01-18T09:46:12.657Z,2.80
2019-01-18T09:47:17.802Z,3.13
2019-01-18T09:48:23.097Z,2.90
2019-01-18T09:49:28.375Z,2.90
2019-01-18T09:50:33.754Z,3.00
2019-01-18T09:51:38.930Z,2.57
2019-01-18T09:52:44.132Z,2.43
2019-01-18T09:55:20.142Z,2.60
2019-01-18T09:56:25.387Z,3.07
2019-01-18T09:57:30.611Z,2.27
2019-01-18T09:58:35.884Z,2.10
2019-01-18T09:59:41.178Z,2.43
2019-01-18T10:00:48.549Z,1.93
2019-01-18T10:01:53.686Z,2.43
2019-01-18T10:03:00.091Z,2.63
2019-01-18T10:04:05.424Z,2.40
2019-01-18T10:05:11.184Z,2.40
2019-01-18T10:06:16.641Z,2.30
2019-01-18T10:07:21.806Z,2.33
2019-01-18T10:08:27.009Z,2.43
2019-01-18T10:09:32.247Z,2.57
2019-01-18T10:10:37.682Z,2.33
2019-01-18T10:11:42.800Z,2.27
2019-01-18T10:12:48.488Z,2.07
2019-01-18T10:13:53.739Z,2.27
2019-01-18T10:14:58.909Z,2.43
2019-01-18T10:16:04.258Z,2.30
2019-01-18T10:17:09.470Z,2.47
2019-01-18T10:18:14.911Z,2.70
2019-01-18T10:19:20.167Z,2.23
2019-01-18T10:20:26.718Z,2.83
2019-01-18T10:21:32.313Z,2.37
2019-01-18T10:22:40.082Z,10.13
2019-01-18T10:23:45.463Z,4.57
2019-01-18T10:24:50.922Z,5.33
2019-01-18T10:25:56.507Z,4.03
2019-01-18T10:27:02.027Z,3.27
2019-01-18T10:28:07.551Z,7.13
2019-01-18T10:29:13.066Z,6.37
2019-01-18T10:30:20.625Z,2.40
2019-01-18T10:31:25.777Z,2.47
2019-01-18T10:32:30.945Z,2.30
2019-01-18T10:33:36.283Z,3.03
2019-01-18T10:34:43.861Z,2.40
2019-01-18T10:35:49.113Z,2.80
2019-01-18T10:38:22.410Z,2.40
2019-01-18T10:38:55.625Z,2.47
2019-01-18T10:41:06.725Z,2.80
2019-01-18T10:41:33.020Z,2.30
2019-01-18T10:42:38.382Z,2.60
2019-01-18T10:43:43.721Z,2.40
2019-01-18T10:44:48.893Z,2.93
2019-01-18T10:45:54.192Z,3.10
2019-01-18T10:46:59.504Z,2.83
2019-01-18T10:48:04.981Z,2.83
2019-01-18T10:49:10.240Z,2.23
2019-01-18T10:50:17.673Z,2.23
2019-01-18T10:51:23.251Z,3.63
2019-01-18T10:52:28.488Z,3.13
2019-01-18T10:53:33.728Z,2.70
2019-01-18T10:54:38.954Z,3.70
2019-01-18T10:55:44.224Z,3.37
2019-01-18T10:56:49.493Z,5.37
2019-01-18T10:57:54.735Z,4.00
2019-01-18T10:58:59.874Z,4.67
2019-01-18T11:00:08.079Z,3.90
2019-01-18T11:01:13.296Z,5.70
2019-01-18T11:02:21.019Z,5.13
2019-01-18T11:03:26.323Z,4.37
2019-01-18T11:04:31.419Z,6.33
2019-01-18T11:05:36.763Z,3.80
2019-01-18T11:06:43.773Z,3.97
2019-01-18T11:07:49.329Z,4.20
2019-01-18T11:08:54.603Z,3.50
2019-01-18T11:09:59.796Z,5.07
2019-01-18T11:11:05.220Z,3.80
2019-01-18T11:12:10.365Z,6.60
2019-01-18T11:13:15.633Z,3.40
2019-01-18T11:14:20.827Z,3.80
2019-01-18T11:15:36.384Z,5.30
2019-01-18T11:16:42.527Z,4.93
2019-01-18T11:17:47.774Z,3.90
2019-01-18T11:18:53.139Z,4.33
2019-01-18T11:19:58.310Z,4.57
2019-01-18T11:21:10.436Z,3.90
2019-01-18T11:22:15.663Z,4.67
2019-01-18T11:23:22.571Z,5.33
2019-01-18T11:24:28.738Z,4.70
2019-01-18T11:25:35.304Z,5.07
2019-01-18T11:26:43.215Z,4.97
2019-01-18T11:27:48.457Z,5.20
2019-01-18T11:28:53.620Z,5.27
2019-01-18T11:30:00.247Z,5.33
2019-01-18T11:31:05.380Z,4.67
2019-01-18T11:32:13.787Z,4.97
2019-01-18T11:33:17.675Z,5.37
2019-01-18T11:34:24.184Z,5.47
2019-01-18T11:35:31.722Z,5.70
2019-01-18T11:36:36.973Z,5.37
2019-01-18T11:37:42.179Z,5.67
2019-01-18T11:38:47.416Z,6.33
2019-01-18T11:39:52.673Z,5.93
2019-01-18T11:40:57.829Z,5.20
2019-01-18T11:42:05.465Z,5.23
2019-01-18T11:43:10.111Z,6.00
2019-01-18T11:44:15.293Z,4.80
2019-01-18T11:45:20.446Z,5.60
2019-01-18T11:46:25.808Z,5.77
2019-01-18T11:47:30.948Z,7.27
2019-01-18T11:48:36.250Z,5.97
2019-01-18T11:49:41.416Z,5.50
2019-01-18T11:50:46.733Z,8.07
2019-01-18T11:51:51.892Z,4.80
2019-01-18T11:52:58.724Z,8.43
2019-01-18T11:54:03.877Z,5.57
2019-01-18T11:55:10.821Z,4.90
2019-01-18T11:56:18.036Z,4.97
2019-01-18T11:57:23.335Z,5.20
2019-01-18T11:58:28.616Z,5.10
2019-01-18T11:59:33.884Z,5.33
2019-01-18T12:00:39.184Z,7.20
2019-01-18T12:01:44.375Z,6.93
2019-01-18T12:02:50.049Z,10.43
2019-01-18T12:03:55.336Z,6.73
2019-01-18T12:05:00.621Z,4.97
2019-01-18T12:06:06.087Z,5.97
2019-01-18T12:07:11.487Z,5.80
2019-01-18T12:08:16.758Z,4.90
2019-01-18T12:09:21.934Z,5.20
2019-01-18T12:10:30.243Z,6.20
2019-01-18T12:11:36.550Z,6.00
2019-01-18T12:12:41.849Z,6.80
2019-01-18T12:13:47.177Z,7.47
2019-01-18T12:14:52.404Z,4.73
2019-01-18T12:15:57.614Z,5.07
2019-01-18T12:17:02.928Z,6.23
2019-01-18T12:18:08.280Z,5.63
2019-01-18T12:19:13.507Z,6.53
2019-01-18T12:20:21.624Z,5.73
2019-01-18T12:21:26.882Z,5.57
2019-01-18T12:22:33.027Z,5.57
2019-01-18T12:23:38.365Z,5.43
2019-01-18T12:24:43.623Z,5.70
2019-01-18T12:25:48.895Z,6.03
2019-01-18T12:26:54.127Z,6.87
2019-01-18T12:27:59.490Z,5.77
2019-01-18T12:29:04.862Z,5.37
2019-01-18T12:30:20.055Z,5.13
2019-01-18T12:31:26.876Z,5.70
2019-01-18T12:32:32.186Z,5.60
2019-01-18T12:33:37.515Z,6.03
2019-01-18T12:34:42.880Z,6.13
2019-01-18T12:35:48.114Z,4.80
2019-01-18T12:36:58.983Z,6.43
2019-01-18T12:38:00.366Z,5.77
2019-01-18T12:39:09.268Z,5.67
2019-01-18T12:40:14.516Z,5.90
2019-01-18T12:41:19.742Z,5.67
2019-01-18T12:42:25.022Z,5.93
2019-01-18T12:43:30.276Z,5.40
2019-01-18T12:44:35.538Z,6.00
2019-01-18T12:45:41.613Z,6.00
2019-01-18T12:46:46.818Z,5.20
2019-01-18T12:47:52.037Z,6.00
2019-01-18T12:48:57.265Z,5.77
2019-01-18T12:50:02.535Z,5.77
2019-01-18T12:51:07.887Z,5.80
2019-01-18T12:52:13.115Z,6.47
2019-01-18T12:53:18.308Z,6.13
2019-01-18T12:54:23.552Z,6.13
2019-01-18T12:55:28.729Z,6.30
2019-01-18T12:56:33.906Z,6.03
2019-01-18T12:57:39.039Z,5.83
2019-01-18T12:58:44.464Z,5.57
2019-01-18T12:59:49.666Z,6.23
2019-01-18T13:00:54.946Z,5.90
2019-01-18T13:02:00.210Z,5.20
2019-01-18T13:03:06.339Z,5.90
2019-01-18T13:04:11.641Z,6.40
2019-01-18T13:05:19.684Z,5.53
2019-01-18T13:06:24.957Z,5.37
2019-01-18T13:07:30.230Z,6.17
2019-01-18T13:08:35.982Z,5.80
2019-01-18T13:09:41.273Z,5.40
2019-01-18T13:10:46.504Z,5.40
2019-01-18T13:11:51.771Z,5.70
2019-01-18T13:12:57.039Z,5.23
2019-01-18T13:14:02.341Z,6.30
2019-01-18T13:15:14.606Z,5.50
2019-01-18T13:16:46.198Z,5.90
2019-01-18T13:17:51.532Z,6.17
2019-01-18T13:18:59.959Z,6.40
2019-01-18T13:20:06.167Z,6.93
2019-01-18T13:21:11.502Z,6.77
2019-01-18T13:22:16.645Z,6.10
2019-01-18T13:23:21.810Z,5.27
2019-01-18T13:24:27.133Z,5.80
2019-01-18T13:25:32.290Z,6.23
2019-01-18T13:26:37.566Z,6.13
2019-01-18T13:27:43.030Z,6.13
2019-01-18T13:28:48.359Z,5.93
2019-01-18T13:29:53.635Z,6.60
2019-01-18T13:30:58.892Z,7.13
2019-01-18T13:32:04.218Z,6.63
2019-01-18T13:33:09.476Z,6.47
2019-01-18T13:34:14.861Z,6.97
2019-01-18T13:35:20.039Z,6.30
2019-01-18T13:36:25.438Z,6.37
2019-01-18T13:37:47.074Z,6.97
2019-01-18T13:38:52.290Z,6.50
2019-01-18T13:39:57.474Z,6.33
2019-01-18T13:41:02.626Z,6.63
2019-01-18T13:42:07.890Z,7.37
2019-01-18T13:43:13.147Z,6.33
2019-01-18T13:44:18.439Z,5.80
2019-01-18T13:45:24.507Z,6.30
2019-01-18T13:46:29.800Z,6.27
2019-01-18T13:47:34.970Z,6.40
2019-01-18T13:48:40.229Z,6.70
2019-01-18T13:49:45.494Z,7.60
2019-01-18T13:50:50.677Z,7.37
2019-01-18T13:51:55.866Z,7.10
2019-01-18T13:53:01.121Z,7.00
2019-01-18T13:54:09.367Z,7.43
2019-01-18T13:55:19.586Z,7.67
2019-01-18T13:56:24.757Z,7.90
2019-01-18T13:57:30.037Z,8.40
2019-01-18T13:58:35.426Z,7.83
2019-01-18T13:59:42.827Z,8.10
2019-01-18T14:00:48.413Z,8.93
2019-01-18T14:01:53.669Z,10.03
2019-01-18T14:02:58.996Z,9.87
2019-01-18T14:04:04.348Z,9.70
2019-01-18T14:05:10.525Z,8.47
2019-01-18T14:06:15.705Z,8.63
2019-01-18T14:07:21.038Z,8.77
2019-01-18T14:08:28.755Z,8.27
2019-01-18T14:09:33.921Z,8.43
2019-01-18T14:10:39.146Z,8.93
2019-01-18T14:11:44.307Z,9.30
2019-01-18T14:12:49.776Z,8.57
2019-01-18T14:13:54.975Z,9.70
2019-01-18T14:15:00.315Z,9.90
2019-01-18T14:16:05.449Z,8.93
2019-01-18T14:17:10.638Z,8.43
2019-01-18T14:18:15.922Z,9.43
2019-01-18T14:19:21.204Z,7.43
2019-01-18T14:20:26.448Z,8.80
2019-01-18T14:21:31.677Z,9.17
2019-01-18T14:22:36.931Z,8.17
2019-01-18T14:23:42.206Z,9.17
2019-01-18T14:24:47.644Z,9.17
2019-01-18T14:25:52.863Z,8.93
2019-01-18T14:26:58.035Z,9.40
2019-01-18T14:28:03.214Z,9.33
2019-01-18T14:29:11.479Z,9.00
2019-01-18T14:30:24.962Z,9.90
2019-01-18T14:31:30.278Z,9.23
2019-01-18T14:32:35.545Z,10.00
2019-01-18T14:33:40.732Z,8.50
2019-01-18T14:34:46.068Z,8.67
2019-01-18T14:35:51.402Z,8.10
2019-01-18T14:36:56.722Z,7.80
2019-01-18T14:38:01.954Z,8.33
2019-01-18T14:39:08.976Z,8.67
2019-01-18T14:40:15.147Z,9.63
2019-01-18T14:41:20.417Z,8.13
2019-01-18T14:42:25.576Z,7.87
2019-01-18T14:43:30.805Z,7.80